LTAD/ANK METAR and TAF weather

Enter ICAO airport designator
Station Type Date Time Source
LTAD METAR 2021/01/16 01:50 UTC NOAA

LTAD 160150Z VRB02KT 9999 BKN040 M05/M07 Q1013 NOSIG RMK RWY29 28001KT


Station Type Date Time Source
LTAD Decoded METAR 2021/01/16 01:50 UTC NOAA

Ankara / Etimesgut, Turkey (LTAD) 39-57N 032-41E 806M
Jan 15, 2021 - 08:50 PM EST / 2021.01.16 0150 UTC
Wind: Variable at 2 MPH (2 KT):0
Visibility: greater than 7 mile(s):0
Sky conditions: mostly cloudy
Temperature: 23 F (-5 C)
Dew Point: 19 F (-7 C)
Relative Humidity: 85%
Pressure (altimeter): 29.91 in. Hg (1013 hPa)
ob: LTAD 160150Z VRB02KT 9999 BKN040 M05/M07 Q1013 NOSIG RMK RWY29 28001KT
cycle: 2

Station Type Date Time Source
LTAD TAF UTC NOAA

Error!

Example: see airport list